Arley, Alabama
Current Conditions -  °F | °C
As of 3:55 PM on Friday 28 Nov 2014 (Local Time) from KJFX Reporting Station
Clear Clear  
Wind Chill: 54°   Ceiling: Unl
Heat Index: 54°   Visibility: 10mi
Dew Point: 25°   Wind: 0mph
Humidity: 33%   Direction: NA
Pressure: 30.28"   Gusts: NA
Location:  34.08°N, 87.21°W
Report Text: KJFX 282155Z AUTO 00000KT 10SM CLR 12/M04 A3028 RMK A02 P-128
Loading
Personal Weather Stations






























Interactive Weather Map New forecast layout! Learn more

10-Day Weather Forecast

Advertisements
Track Severe Weather on mobile